| time (UTC) | temp C | wind direction | speed KPH | gust KPH | rain 1hr cm | rain 24hr cm | rain mn cm | humidity % | barometer mb |
| 20260507080001 | 10 | 269 | 0.0 | 6.4 | 0.00 | 0.18 | 1.63 | 98 | 1013.4 |
| 20260507074500 | 10 | 155 | 4.8 | 6.4 | 0.00 | 0.18 | 1.63 | 99 | 1013.3 |
| 20260507073001 | 10 | 273 | 1.6 | 6.4 | 0.00 | 0.18 | 1.63 | 99 | 1013.4 |
| 20260507071500 | 10 | 220 | 3.2 | 4.8 | 0.00 | 0.18 | 1.63 | 99 | 1013.1 |
| 20260507070000 | 10 | 171 | 1.6 | 4.8 | 0.00 | 0.18 | 1.63 | 99 | 1013.2 |
| 20260507064500 | 10 | 306 | 0.0 | 6.4 | 0.00 | 0.18 | 1.63 | 99 | 1013.1 |
| 20260507063000 | 10 | 345 | 0.0 | 4.8 | 0.00 | 0.18 | 1.63 | 99 | 1013.0 |
| 20260507061501 | 10 | 211 | 3.2 | 8.0 | 0.00 | 0.18 | 1.63 | 99 | 1013.0 |
| 20260507060001 | 10 | 282 | 1.6 | 8.0 | 0.00 | 0.18 | 1.63 | 99 | 1012.7 |
| 20260507054500 | 10 | 254 | 0.0 | 4.8 | 0.00 | 0.18 | 1.63 | 99 | 1012.6 |
| 20260507053000 | 10 | 202 | 3.2 | 4.8 | 0.00 | 0.18 | 1.63 | 99 | 1012.2 |
| 20260507051501 | 10 | 174 | 3.2 | 4.8 | 0.00 | 0.18 | 1.63 | 99 | 1012.1 |
| 20260507050000 | 10 | 223 | 1.6 | 4.8 | 0.00 | 0.18 | 1.63 | 98 | 1011.7 |
| 20260507044501 | 10 | 142 | 3.2 | 6.4 | 0.00 | 0.18 | 1.63 | 98 | 1011.8 |
| 20260507043000 | 10 | 192 | 4.8 | 6.4 | 0.00 | 0.18 | 1.63 | 98 | 1011.7 |
| 20260507041500 | 10 | 224 | 3.2 | 9.7 | 0.00 | 0.18 | 1.63 | 97 | 1011.5 |
| 20260507040001 | 10 | 285 | 3.2 | 6.4 | 0.00 | 0.18 | 1.63 | 97 | 1011.4 |
| 20260507034500 | 10 | 204 | 3.2 | 12.9 | 0.00 | 0.18 | 1.63 | 97 | 1011.5 |
| 20260507033000 | 10 | 185 | 4.8 | 6.4 | 0.00 | 0.18 | 1.63 | 97 | 1011.4 |
| 20260507031501 | 10 | 215 | 11.3 | 14.5 | 0.00 | 0.18 | 1.63 | 96 | 1011.3 |
| 20260507030001 | 10 | 188 | 6.4 | 14.5 | 0.00 | 0.18 | 1.63 | 97 | 1011.2 |
| 20260507024501 | 10 | 236 | 3.2 | 9.7 | 0.00 | 0.18 | 1.63 | 96 | 1011.4 |
| 20260507023001 | 10 | 187 | 4.8 | 9.7 | 0.00 | 0.18 | 1.63 | 96 | 1011.3 |
| 20260507021501 | 10 | 182 | 6.4 | 11.3 | 0.00 | 0.18 | 1.63 | 98 | 1011.4 |
| 20260507020000 | 11 | 169 | 8.0 | 8.0 | 0.00 | 0.18 | 1.63 | 97 | 1011.3 |
| 20260507014501 | 11 | 183 | 4.8 | 9.7 | 0.00 | 0.18 | 1.63 | 96 | 1011.0 |
| 20260507013000 | 11 | 170 | 4.8 | 4.8 | 0.03 | 0.18 | 1.63 | 96 | 1011.0 |
| 20260507011500 | 11 | 238 | 4.8 | 11.3 | 0.03 | 0.18 | 1.63 | 95 | 1010.9 |
| 20260507010001 | 11 | 161 | 3.2 | 6.4 | 0.15 | 0.18 | 1.63 | 95 | 1010.8 |
| 20260507004500 | 11 | 96 | 9.7 | 11.3 | 0.18 | 0.18 | 1.63 | 96 | 1010.8 |
| 20260507003000 | 11 | 68 | 8.0 | 8.0 | 0.18 | 0.18 | 1.60 | 96 | 1010.8 |
| 20260507001501 | 11 | 119 | 3.2 | 6.4 | 0.15 | 0.15 | 1.60 | 97 | 1010.8 |
| 20260507000001 | 11 | 177 | 4.8 | 11.3 | 0.00 | 0.00 | 1.45 | 97 | 1011.1 |
| 20260506234501 | 11 | 148 | 1.6 | 1.6 | 0.00 | 0.00 | 1.45 | 96 | 1011.0 |
| 20260506233000 | 11 | 209 | 1.6 | 3.2 | 0.00 | 0.00 | 1.45 | 96 | 1010.8 |
| 20260506231500 | 11 | 213 | 3.2 | 6.4 | 0.00 | 0.00 | 1.45 | 94 | 1010.6 |
| 20260506230000 | 12 | 97 | 3.2 | 6.4 | 0.00 | 0.00 | 1.45 | 89 | 1010.7 |
| 20260506224500 | 11 | 83 | 8.0 | 16.1 | 0.00 | 0.00 | 1.45 | 90 | 1010.4 |
| 20260506223001 | 12 | 103 | 3.2 | 12.9 | 0.00 | 0.00 | 1.45 | 89 | 1010.5 |
| 20260506221501 | 12 | 189 | 4.8 | 8.0 | 0.03 | 0.00 | 1.45 | 88 | 1010.3 |
| 20260506220001 | 12 | 218 | 12.9 | 19.3 | 0.03 | 0.33 | 1.45 | 89 | 1010.3 |
| 20260506214501 | 12 | 315 | 3.2 | 4.8 | 0.00 | 0.33 | 1.42 | 88 | 1010.1 |
| 20260506213001 | 12 | 183 | 6.4 | 11.3 | 0.00 | 0.33 | 1.42 | 88 | 1009.9 |
| 20260506211500 | 12 | 129 | 6.4 | 9.7 | 0.00 | 0.33 | 1.42 | 89 | 1009.9 |
| 20260506210001 | 12 | 153 | 8.0 | 9.7 | 0.00 | 0.33 | 1.42 | 90 | 1010.1 |
| 20260506204500 | 12 | 112 | 8.0 | 20.9 | 0.00 | 0.33 | 1.42 | 88 | 1009.5 |
| 20260506203002 | 12 | 112 | 9.7 | 20.9 | 0.00 | 0.33 | 1.42 | 86 | 1009.0 |
| 20260506201500 | 12 | 86 | 24.1 | 27.4 | 0.00 | 0.33 | 1.42 | 88 | 1008.8 |
| 20260506200001 | 12 | 92 | 12.9 | 27.4 | 0.13 | 0.33 | 1.42 | 86 | 1008.6 |
| 20260506194501 | 12 | 102 | 11.3 | 24.1 | 0.13 | 0.33 | 1.42 | 87 | 1008.2 |
| 20260506193002 | 12 | 61 | 20.9 | 20.9 | 0.13 | 0.33 | 1.42 | 89 | 1008.3 |
| 20260506191500 | 11 | 116 | 6.4 | 14.5 | 0.13 | 0.33 | 1.42 | 90 | 1007.7 |
| 20260506190000 | 13 | 126 | 12.9 | 14.5 | 0.00 | 0.20 | 1.30 | 81 | 1007.8 |
| 20260506184501 | 13 | 168 | 6.4 | 19.3 | 0.00 | 0.18 | 1.30 | 79 | 1007.4 |
| 20260506183000 | 13 | 32 | 6.4 | 19.3 | 0.00 | 0.18 | 1.30 | 79 | 1007.2 |
| 20260506181501 | 14 | 121 | 8.0 | 16.1 | 0.00 | 0.18 | 1.30 | 80 | 1006.8 |
| 20260506180001 | 14 | 129 | 8.0 | 22.5 | 0.00 | 0.18 | 1.30 | 81 | 1006.6 |
| 20260506173000 | 14 | 68 | 9.7 | 25.7 | 0.00 | 0.18 | 1.30 | 81 | 1006.4 |
| 20260506171501 | 14 | 123 | 11.3 | 30.6 | 0.00 | 0.18 | 1.30 | 80 | 1006.0 |
| 20260506170001 | 14 | 100 | 16.1 | 29.0 | 0.00 | 0.18 | 1.30 | 80 | 1005.9 |
| 20260506164501 | 15 | 68 | 14.5 | 30.6 | 0.00 | 0.18 | 1.30 | 77 | 1006.0 |
| 20260506163000 | 15 | 84 | 16.1 | 25.7 | 0.10 | 0.18 | 1.30 | 73 | 1005.8 |
| 20260506161500 | 16 | 91 | 12.9 | 25.7 | 0.10 | 0.18 | 1.30 | 72 | 1005.9 |
| 20260506160001 | 15 | 97 | 9.7 | 24.1 | 0.10 | 0.18 | 1.30 | 77 | 1006.1 |
| 20260506154500 | 15 | 105 | 4.8 | 11.3 | 0.10 | 0.18 | 1.30 | 78 | 1006.4 |
| 20260506153000 | 16 | 188 | 3.2 | 8.0 | 0.00 | 0.10 | 1.19 | 70 | 1006.6 |
| 20260506151500 | 16 | 75 | 9.7 | 19.3 | 0.00 | 0.10 | 1.19 | 68 | 1006.3 |
| 20260506150001 | 17 | 80 | 11.3 | 12.9 | 0.00 | 0.10 | 1.19 | 67 | 1006.3 |
| 20260506144501 | 17 | 76 | 6.4 | 19.3 | 0.00 | 0.10 | 1.19 | 63 | 1006.1 |
| 20260506143000 | 18 | 86 | 14.5 | 25.7 | 0.00 | 0.10 | 1.19 | 60 | 1005.7 |
| 20260506141501 | 18 | 76 | 14.5 | 24.1 | 0.00 | 0.10 | 1.19 | 61 | 1005.8 |
| 20260506140000 | 18 | 104 | 12.9 | 25.7 | 0.00 | 0.10 | 1.19 | 62 | 1006.3 |
| 20260506134500 | 18 | 92 | 16.1 | 17.7 | 0.00 | 0.10 | 1.19 | 62 | 1006.3 |
| 20260506133001 | 18 | 103 | 11.3 | 24.1 | 0.00 | 0.10 | 1.19 | 63 | 1006.6 |
| 20260506131500 | 18 | 108 | 11.3 | 12.9 | 0.00 | 0.10 | 1.19 | 65 | 1006.5 |
| 20260506130001 | 18 | 142 | 8.0 | 25.7 | 0.00 | 0.10 | 1.19 | 65 | 1006.7 |
| 20260506124500 | 18 | 97 | 14.5 | 22.5 | 0.00 | 0.10 | 1.19 | 65 | 1006.6 |
| 20260506123000 | 18 | 69 | 9.7 | 19.3 | 0.00 | 0.10 | 1.19 | 64 | 1006.6 |
| 20260506121500 | 19 | 84 | 12.9 | 14.5 | 0.00 | 0.10 | 1.19 | 62 | 1006.7 |
| 20260506120000 | 18 | 125 | 6.4 | 17.7 | 0.00 | 0.10 | 1.19 | 62 | 1006.8 |
| 20260506114501 | 17 | 107 | 8.0 | 11.3 | 0.00 | 0.10 | 1.19 | 69 | 1006.8 |
| 20260506113001 | 19 | 113 | 4.8 | 9.7 | 0.00 | 0.10 | 1.19 | 62 | 1006.9 |
| 20260506111500 | 18 | 123 | 4.8 | 6.4 | 0.00 | 0.10 | 1.19 | 64 | 1007.1 |
| 20260506110000 | 16 | 104 | 4.8 | 17.7 | 0.00 | 0.10 | 1.19 | 64 | 1007.2 |
| 20260506104500 | 18 | 93 | 9.7 | 17.7 | 0.00 | 0.10 | 1.19 | 66 | 1007.3 |
| 20260506103000 | 17 | 167 | 1.6 | 11.3 | 0.00 | 0.10 | 1.19 | 71 | 1007.3 |
| 20260506101500 | 16 | 108 | 3.2 | 14.5 | 0.00 | 0.10 | 1.19 | 74 | 1007.5 |
| 20260506100000 | 16 | 99 | 6.4 | 9.7 | 0.00 | 0.10 | 1.19 | 78 | 1007.7 |
| 20260506094501 | 14 | 142 | 6.4 | 9.7 | 0.00 | 0.10 | 1.19 | 80 | 1007.8 |
| 20260506093000 | 14 | 121 | 3.2 | 4.8 | 0.00 | 0.10 | 1.19 | 84 | 1007.8 |
| 20260506091500 | 15 | 192 | 3.2 | 6.4 | 0.00 | 0.10 | 1.19 | 82 | 1007.7 |
| 20260506090001 | 12 | 354 | 1.6 | 3.2 | 0.00 | 0.10 | 1.19 | 93 | 1007.8 |
| 20260506084501 | 12 | 185 | 3.2 | 6.4 | 0.00 | 0.10 | 1.19 | 94 | 1007.8 |
| 20260506083000 | 11 | 3 | 0.0 | 4.8 | 0.00 | 0.10 | 1.19 | 97 | 1007.9 |
| 20260506081501 | 11 | 310 | 3.2 | 8.0 | 0.00 | 0.10 | 1.19 | 96 | 1008.0 |